Time;durP1;ratioP1;P1;durP2;ratioP2;P2;SDS_P1;SDS_P2;PMS_P1;PMS_P2;Temp;Humidity;BMP_temperature;BMP_pressure;BME280_temperature;BME280_humidity;BME280_pressure;Samples;Min_cycle;Max_cycle;Signal;HPM_P1;HPM_P2
2022/08/06 00:00:04;;;;;;;2.92;2.42;;;19.40;99.90;;;;;;5007997;28;20030;-83
2022/08/06 00:02:52;;;;;;;6.95;2.65;;;19.20;99.90;;;;;;5002350;28;20056;-83
2022/08/06 00:05:31;;;;;;;2.67;2.17;;;19.10;99.90;;;;;;5000646;28;20092;-83
2022/08/06 00:08:12;;;;;;;;;;;;;;;;;;;;;
2022/08/06 00:10:41;;;;;;;4.28;2.63;;;19.00;99.90;;;;;;5026781;28;20125;-84
2022/08/06 00:13:51;;;;;;;4.38;2.53;;;19.00;99.90;;;;;;5008006;28;20478;-84
2022/08/06 00:16:28;;;;;;;4.13;2.08;;;19.00;99.90;;;;;;4997250;28;20065;-84
2022/08/06 00:19:43;;;;;;;2.45;2.20;;;19.00;99.90;;;;;;5005553;28;20038;-83
2022/08/06 00:22:31;;;;;;;2.90;2.60;;;19.00;99.90;;;;;;5006325;28;20045;-84
2022/08/06 00:25:26;;;;;;;2.35;2.15;;;19.00;99.90;;;;;;5015017;28;20028;-82
2022/08/06 00:27:58;;;;;;;2.75;2.33;;;19.00;99.90;;;;;;5007167;28;20046;-84
2022/08/06 01:26:50;;;;;;;4.50;2.33;;;18.70;99.90;;;;;;5106653;28;20027;-83
2022/08/06 01:29:47;;;;;;;4.50;2.30;;;18.60;99.90;;;;;;5024740;28;20034;-82
2022/08/06 01:33:27;;;;;;;;;;;;;;;;;;;;;
2022/08/06 01:36:26;;;;;;;2.35;1.83;;;18.50;99.90;;;;;;4967239;28;20115;-83
2022/08/06 01:39:36;;;;;;;3.22;2.28;;;18.50;99.90;;;;;;4988039;28;20490;-83
2022/08/06 01:42:19;;;;;;;2.38;2.17;;;18.50;99.90;;;;;;5002363;28;20049;-83
2022/08/06 01:44:56;;;;;;;2.65;2.20;;;18.50;99.90;;;;;;4973666;28;20474;-83
2022/08/06 01:47:45;;;;;;;2.95;1.95;;;18.40;99.90;;;;;;5006572;28;20050;-83
2022/08/06 01:56:18;;;;;;;2.22;2.00;;;18.30;99.90;;;;;;5056940;26;20358;-83
2022/08/06 01:58:56;;;;;;;5.50;2.45;;;18.30;99.90;;;;;;5092927;28;20024;-83
2022/08/06 02:01:29;;;;;;;3.78;2.33;;;18.40;99.90;;;;;;5099389;28;20058;-83
2022/08/06 02:03:58;;;;;;;2.67;2.20;;;18.40;99.90;;;;;;5092345;28;20100;-84
2022/08/06 02:06:42;;;;;;;2.65;2.30;;;18.40;99.90;;;;;;5065655;28;20354;-81
2022/08/06 02:09:11;;;;;;;2.10;2.00;;;18.50;99.90;;;;;;5062087;28;20119;-80
2022/08/06 02:11:39;;;;;;;2.38;2.17;;;18.50;99.90;;;;;;5062504;28;20052;-82
2022/08/06 02:14:07;;;;;;;2.30;2.10;;;18.60;99.90;;;;;;5065532;28;20033;-82
2022/08/06 02:16:39;;;;;;;2.00;1.90;;;18.60;99.90;;;;;;5073202;28;20044;-81
2022/08/06 02:19:06;;;;;;;3.13;2.08;;;18.60;99.90;;;;;;5082104;28;20041;-81
2022/08/06 02:21:34;;;;;;;2.30;2.10;;;18.60;99.90;;;;;;5080106;28;20031;-80
2022/08/06 02:24:06;;;;;;;1.65;1.55;;;18.70;99.90;;;;;;5062043;28;20495;-81
2022/08/06 02:26:32;;;;;;;;;;;18.70;99.90;;;;;;5067094;28;20029;-81
2022/08/06 02:29:01;;;;;;;2.28;2.10;;;18.70;99.90;;;;;;5062841;28;20281;-80
2022/08/06 02:31:27;;;;;;;1.95;1.77;;;18.70;99.90;;;;;;5077952;28;20068;-80
2022/08/06 02:33:52;;;;;;;2.30;1.80;;;18.80;99.90;;;;;;5063028;28;20481;-79
2022/08/06 02:36:24;;;;;;;2.00;1.90;;;18.90;99.90;;;;;;5079451;28;20020;-81
2022/08/06 02:39:06;;;;;;;1.80;1.70;;;18.90;99.90;;;;;;5078352;28;20037;-81
2022/08/06 02:41:41;;;;;;;2.15;1.90;;;18.90;99.90;;;;;;5086350;28;20032;-77
2022/08/06 02:44:56;;;;;;;2.80;1.75;;;18.90;99.90;;;;;;5081603;28;20043;-79
2022/08/06 02:47:38;;;;;;;2.20;2.00;;;18.80;99.90;;;;;;5067893;28;20040;-80
2022/08/06 02:50:06;;;;;;;3.50;2.08;;;18.80;99.90;;;;;;5075204;28;20017;-77
2022/08/06 02:52:43;;;;;;;2.78;2.10;;;18.70;99.90;;;;;;5072063;28;20029;-81
2022/08/06 02:55:16;;;;;;;2.92;2.45;;;18.70;99.90;;;;;;5063413;28;20456;-79
2022/08/06 02:57:59;;;;;;;2.70;2.50;;;18.80;99.90;;;;;;5079616;28;20486;-78
2022/08/06 03:00:27;;;;;;;2.55;2.35;;;18.80;99.90;;;;;;5060921;28;20115;-79
2022/08/06 03:02:56;;;;;;;3.15;2.05;;;18.70;99.90;;;;;;5078578;28;20048;-80
2022/08/06 03:05:23;;;;;;;3.05;2.53;;;18.60;99.90;;;;;;5079725;28;20028;-80
2022/08/06 03:07:52;;;;;;;2.63;2.42;;;18.60;99.90;;;;;;5077971;28;20439;-80
2022/08/06 03:10:24;;;;;;;2.80;2.60;;;18.60;99.90;;;;;;5078303;28;20021;-80
2022/08/06 03:12:52;;;;;;;3.33;2.80;;;18.60;99.90;;;;;;5048264;28;20017;-79
2022/08/06 03:15:19;;;;;;;3.17;2.88;;;18.60;99.90;;;;;;5060560;28;20108;-80
2022/08/06 03:17:46;;;;;;;3.20;2.88;;;18.70;99.90;;;;;;5071764;28;20032;-78
2022/08/06 03:20:20;;;;;;;6.40;3.08;;;18.80;99.90;;;;;;5068757;28;20028;-80
2022/08/06 03:22:49;;;;;;;4.47;3.22;;;18.80;99.90;;;;;;5083043;28;20025;-80
2022/08/06 03:25:16;;;;;;;3.90;3.60;;;18.90;99.90;;;;;;5079164;28;20021;-80
2022/08/06 03:27:44;;;;;;;4.70;3.67;;;18.90;99.90;;;;;;5060029;28;20433;-80
2022/08/06 03:30:15;;;;;;;4.30;3.90;;;18.90;99.90;;;;;;5078608;28;20029;-80
2022/08/06 03:32:42;;;;;;;5.30;3.97;;;18.90;99.90;;;;;;5060584;28;20024;-81
2022/08/06 03:35:08;;;;;;;5.85;4.43;;;18.90;99.90;;;;;;5079371;28;20250;-81
2022/08/06 03:37:36;;;;;;;5.18;4.20;;;18.90;99.90;;;;;;5080360;28;20017;-79
2022/08/06 03:40:04;;;;;;;4.47;4.07;;;19.00;99.90;;;;;;5079473;28;20052;-80
2022/08/06 03:42:30;;;;;;;6.25;4.43;;;19.10;99.90;;;;;;5059667;28;20385;-78
2022/08/06 03:44:56;;;;;;;5.47;4.80;;;19.10;99.90;;;;;;5080417;28;20060;-79
2022/08/06 03:47:24;;;;;;;5.05;4.50;;;19.20;99.90;;;;;;5078747;28;20043;-80
2022/08/06 03:49:59;;;;;;;5.88;5.10;;;19.20;99.90;;;;;;5076736;28;20031;-80
2022/08/06 03:52:30;;;;;;;5.90;5.07;;;19.20;99.90;;;;;;5087743;22;20031;-76
2022/08/06 03:55:03;;;;;;;6.53;4.85;;;19.20;99.90;;;;;;5044358;28;20037;-78
2022/08/06 03:57:38;;;;;;;6.47;4.82;;;19.30;99.90;;;;;;5044298;28;20056;-78
2022/08/06 04:00:06;;;;;;;5.70;4.75;;;19.20;99.90;;;;;;5020628;28;20037;-80
2022/08/06 04:02:45;;;;;;;5.40;4.80;;;19.20;99.90;;;;;;5040143;28;20037;-79
2022/08/06 04:05:15;;;;;;;7.95;5.70;;;19.20;99.90;;;;;;5046498;28;20087;-79
2022/08/06 04:07:41;;;;;;;8.68;7.55;;;19.10;99.90;;;;;;5048357;28;20033;-78
2022/08/06 04:10:08;;;;;;;6.57;5.88;;;19.00;99.90;;;;;;5051167;28;20061;-78
2022/08/06 04:12:34;;;;;;;6.57;5.53;;;19.00;99.90;;;;;;5060357;28;20161;-78
2022/08/06 04:15:01;;;;;;;8.18;6.75;;;19.10;99.90;;;;;;5034808;28;20173;-82
2022/08/06 04:17:27;;;;;;;7.95;6.95;;;19.10;99.90;;;;;;5068668;28;20132;-79
2022/08/06 04:19:54;;;;;;;8.68;6.82;;;19.10;99.90;;;;;;5045945;28;20120;-80
2022/08/06 04:22:20;;;;;;;8.63;6.50;;;19.20;99.90;;;;;;5049513;28;20074;-76
2022/08/06 04:24:46;;;;;;;8.75;6.72;;;19.20;99.90;;;;;;5037505;28;20033;-80
2022/08/06 04:27:13;;;;;;;5.93;5.43;;;19.20;99.90;;;;;;5033659;28;20021;-81
2022/08/06 04:29:40;;;;;;;8.50;7.68;;;19.30;99.90;;;;;;5034008;28;20029;-80
2022/08/06 04:32:07;;;;;;;12.43;10.82;;;19.30;99.90;;;;;;5015799;28;20037;-80
2022/08/06 04:34:35;;;;;;;10.27;9.27;;;19.40;99.90;;;;;;5015703;28;20049;-79
2022/08/06 04:37:02;;;;;;;14.32;12.48;;;19.40;99.90;;;;;;5033510;28;20022;-80
2022/08/06 04:39:28;;;;;;;15.80;14.10;;;19.40;99.90;;;;;;5033994;28;20079;-80
2022/08/06 04:41:54;;;;;;;14.63;12.90;;;19.30;99.90;;;;;;5026424;28;20026;-78
2022/08/06 04:44:20;;;;;;;16.13;14.07;;;19.30;99.90;;;;;;5045816;28;20547;-78
2022/08/06 04:46:49;;;;;;;18.38;16.25;;;19.10;99.90;;;;;;5020826;28;20375;-80
2022/08/06 04:49:18;;;;;;;17.63;15.75;;;19.00;99.90;;;;;;5039912;28;20039;-80
2022/08/06 04:51:47;;;;;;;18.42;15.70;;;18.70;99.90;;;;;;5040998;28;20050;-84
2022/08/06 04:54:16;;;;;;;17.13;15.43;;;18.50;99.90;;;;;;5034789;28;20037;-85
2022/08/06 04:56:43;;;;;;;18.80;16.02;;;18.30;99.90;;;;;;5049977;28;20036;-84
2022/08/06 04:59:10;;;;;;;21.42;18.35;;;18.20;99.90;;;;;;5027881;28;20126;-82
2022/08/06 05:01:36;;;;;;;19.60;15.35;;;18.00;99.90;;;;;;5047485;28;20139;-84
2022/08/06 05:04:03;;;;;;;19.33;13.98;;;18.00;99.90;;;;;;5045585;28;20088;-84
2022/08/06 05:06:53;;;;;;;17.48;15.52;;;17.90;99.90;;;;;;5046072;28;20017;-84
2022/08/06 05:09:22;;;;;;;15.45;13.15;;;17.90;99.90;;;;;;5045272;28;20022;-84
2022/08/06 05:11:51;;;;;;;14.40;11.57;;;;;;;;;;5052430;28;20024;-84
2022/08/06 05:14:27;;;;;;;14.13;10.93;;;17.80;99.90;;;;;;5061223;28;20028;-84
2022/08/06 05:16:55;;;;;;;12.38;10.10;;;17.70;99.90;;;;;;5074893;28;20025;-80
2022/08/06 05:19:33;;;;;;;9.90;8.90;;;17.70;99.90;;;;;;5076656;28;20009;-83
2022/08/06 05:22:00;;;;;;;8.07;7.35;;;17.60;99.90;;;;;;5076751;28;20044;-82
2022/08/06 05:24:28;;;;;;;8.60;7.70;;;17.70;99.90;;;;;;5065907;28;20078;-82
2022/08/06 05:26:54;;;;;;;8.13;7.35;;;17.70;99.90;;;;;;5060182;28;20032;-84
2022/08/06 05:29:20;;;;;;;8.60;7.65;;;17.50;99.90;;;;;;5052713;28;20029;-84
2022/08/06 05:31:46;;;;;;;9.18;7.55;;;17.40;99.90;;;;;;5042714;28;20077;-84
2022/08/06 05:34:12;;;;;;;9.77;7.18;;;17.20;99.90;;;;;;5039707;28;20064;-84
2022/08/06 05:36:38;;;;;;;10.82;7.63;;;17.10;99.90;;;;;;5041805;28;20048;-83
2022/08/06 05:39:05;;;;;;;11.27;8.10;;;17.00;99.90;;;;;;5046208;28;20298;-84
2022/08/06 05:41:31;;;;;;;10.52;7.60;;;16.90;99.90;;;;;;5052356;28;20021;-84
2022/08/06 05:43:58;;;;;;;8.23;7.40;;;16.90;99.90;;;;;;5056628;28;20036;-84
2022/08/06 05:46:26;;;;;;;9.57;8.02;;;17.00;99.90;;;;;;5043695;28;20052;-84
2022/08/06 05:49:18;;;;;;;7.72;6.90;;;17.10;99.90;;;;;;5046073;28;20005;-83
2022/08/06 05:51:50;;;;;;;7.93;7.03;;;17.10;99.90;;;;;;5046102;28;20030;-84
2022/08/06 05:54:22;;;;;;;7.35;6.10;;;17.20;99.90;;;;;;5044920;28;20029;-84
2022/08/06 05:56:50;;;;;;;6.93;5.05;;;17.20;99.90;;;;;;5044327;28;20022;-83
2022/08/06 05:59:26;;;;;;;6.68;5.47;;;17.10;99.90;;;;;;5026138;28;20053;-84
2022/08/06 06:01:53;;;;;;;6.80;6.20;;;16.90;99.90;;;;;;5043105;28;20021;-84
2022/08/06 06:04:20;;;;;;;6.70;6.00;;;16.80;99.90;;;;;;5043205;28;20026;-83
2022/08/06 06:06:46;;;;;;;6.72;5.55;;;16.60;99.90;;;;;;5043041;28;20447;-83
2022/08/06 06:09:13;;;;;;;7.97;6.07;;;16.60;99.90;;;;;;5042078;28;20041;-82
2022/08/06 06:11:39;;;;;;;6.60;6.00;;;16.50;99.90;;;;;;5040716;28;20024;-83
2022/08/06 06:14:17;;;;;;;8.13;6.60;;;16.30;99.90;;;;;;5041922;28;20030;-84
2022/08/06 06:17:05;;;;;;;10.75;7.63;;;16.10;99.90;;;;;;5041671;28;20018;-83
2022/08/06 06:19:42;;;;;;;7.68;6.97;;;16.10;99.90;;;;;;5024251;28;20084;-84
2022/08/06 06:22:28;;;;;;;9.50;8.60;;;16.10;99.90;;;;;;5041665;28;20048;-84
2022/08/06 06:24:59;;;;;;;8.10;7.30;;;16.10;99.90;;;;;;5041552;28;20100;-84
2022/08/06 06:27:35;;;;;;;8.70;7.90;;;16.00;99.90;;;;;;5041514;28;20339;-84
2022/08/06 06:30:02;;;;;;;8.88;8.00;;;16.00;99.90;;;;;;5041996;28;20025;-84
2022/08/06 06:32:53;;;;;;;7.88;7.07;;;15.90;99.90;;;;;;5041368;28;20024;-84
2022/08/06 06:35:41;;;;;;;7.35;6.65;;;15.80;99.90;;;;;;5003540;28;20026;-83
2022/08/06 06:38:10;;;;;;;8.23;7.35;;;15.80;99.90;;;;;;5020891;28;20125;-84
2022/08/06 06:40:50;;;;;;;6.65;6.05;;;15.80;99.90;;;;;;5018333;28;20041;-84
2022/08/06 06:43:43;;;;;;;7.07;6.35;;;15.90;99.90;;;;;;5027802;28;20101;-83
2022/08/06 06:46:30;;;;;;;12.48;7.35;;;16.00;99.90;;;;;;5041799;28;20076;-84
2022/08/06 06:49:01;;;;;;;6.70;5.43;;;16.10;99.90;;;;;;5036682;28;20393;-85
2022/08/06 06:51:39;;;;;;;6.53;5.93;;;16.10;99.90;;;;;;5039902;28;20522;-84
2022/08/06 06:54:06;;;;;;;7.68;6.20;;;16.10;99.90;;;;;;5039266;28;20441;-84
2022/08/06 06:56:37;;;;;;;6.10;5.50;;;16.10;99.90;;;;;;5020546;28;20032;-83
2022/08/06 06:59:16;;;;;;;6.07;5.57;;;16.20;99.90;;;;;;5036868;28;20447;-82
2022/08/06 07:01:44;;;;;;;7.13;6.43;;;16.20;99.90;;;;;;5035140;28;20090;-83
2022/08/06 07:04:16;;;;;;;8.13;6.40;;;16.10;99.90;;;;;;5033668;28;20395;-84
2022/08/06 07:06:44;;;;;;;7.82;6.43;;;16.10;99.90;;;;;;5039809;28;20048;-83
2022/08/06 07:09:16;;;;;;;6.30;5.72;;;16.20;99.90;;;;;;5025016;28;20026;-83
2022/08/06 07:11:45;;;;;;;6.28;5.43;;;16.10;99.90;;;;;;5051382;28;20026;-84
2022/08/06 07:14:11;;;;;;;7.43;6.05;;;16.00;99.90;;;;;;5056938;28;20025;-83
2022/08/06 07:16:39;;;;;;;6.50;5.90;;;16.00;99.90;;;;;;5059074;28;20025;-83
2022/08/06 07:19:07;;;;;;;6.47;5.15;;;16.10;99.90;;;;;;5061021;28;20021;-83
2022/08/06 07:21:34;;;;;;;8.75;5.88;;;16.10;99.90;;;;;;5060371;28;20389;-84
2022/08/06 07:24:00;;;;;;;7.55;5.93;;;16.10;99.90;;;;;;5024923;28;20057;-84
2022/08/06 07:26:29;;;;;;;6.28;5.60;;;16.00;99.90;;;;;;5042918;28;20080;-84
2022/08/06 07:28:56;;;;;;;6.25;5.70;;;15.90;99.90;;;;;;5042727;28;20057;-84
2022/08/06 07:31:24;;;;;;;5.75;5.25;;;15.90;99.90;;;;;;5044506;28;20022;-85
2022/08/06 07:33:51;;;;;;;7.10;6.40;;;16.00;99.90;;;;;;5042791;28;20017;-83
2022/08/06 07:36:17;;;;;;;5.97;5.45;;;;;;;;;;5044749;28;20069;-84
2022/08/06 07:38:45;;;;;;;6.07;5.57;;;16.10;99.90;;;;;;5035808;28;20013;-83
2022/08/06 07:41:12;;;;;;;7.00;6.30;;;16.20;99.90;;;;;;5057229;28;20028;-83
2022/08/06 07:43:52;;;;;;;7.15;6.55;;;16.30;99.90;;;;;;5057951;28;20022;-83
2022/08/06 07:46:22;;;;;;;6.55;5.95;;;16.30;99.90;;;;;;5066930;28;20081;-83
2022/08/06 07:48:54;;;;;;;7.82;6.32;;;16.40;99.90;;;;;;5073772;28;20060;-82
2022/08/06 07:51:26;;;;;;;6.88;6.28;;;16.40;99.90;;;;;;5073804;28;20232;-84
2022/08/06 07:53:53;;;;;;;7.07;6.20;;;16.40;99.90;;;;;;5054082;28;20029;-82
2022/08/06 07:56:19;;;;;;;9.18;7.47;;;16.40;99.90;;;;;;5054245;28;20028;-80
2022/08/06 07:58:45;;;;;;;7.40;6.70;;;16.50;99.90;;;;;;5054963;28;20045;-80
2022/08/06 08:01:12;;;;;;;7.20;6.50;;;16.60;99.90;;;;;;5055300;28;20025;-80
2022/08/06 08:06:25;;;;;;;7.90;7.13;;;16.70;99.90;;;;;;5055488;28;20044;-82
2022/08/06 08:08:58;;;;;;;8.85;7.95;;;16.80;99.90;;;;;;5055101;28;20018;-82
2022/08/06 08:11:25;;;;;;;8.85;8.15;;;16.70;99.90;;;;;;5054925;28;20037;-81
2022/08/06 08:13:54;;;;;;;10.45;8.63;;;16.70;99.90;;;;;;5063270;28;20115;-81
2022/08/06 08:16:20;;;;;;;12.68;8.85;;;16.70;99.90;;;;;;5054972;28;20164;-83
2022/08/06 08:18:50;;;;;;;8.35;7.38;;;16.80;99.90;;;;;;5027765;28;20029;-84
2022/08/06 08:21:16;;;;;;;8.48;7.63;;;16.80;99.90;;;;;;5044653;28;20026;-85
2022/08/06 08:23:44;;;;;;;9.68;8.85;;;16.80;99.90;;;;;;5042952;28;20363;-83
2022/08/06 08:26:09;;;;;;;11.15;10.13;;;16.80;99.90;;;;;;5051557;28;20034;-82
2022/08/06 08:28:36;;;;;;;11.10;10.00;;;16.80;99.90;;;;;;5051944;28;20029;-84
2022/08/06 08:31:03;;;;;;;10.82;9.82;;;16.80;99.90;;;;;;5055521;28;20028;-81
2022/08/06 08:33:29;;;;;;;9.93;8.93;;;16.80;99.90;;;;;;5032975;28;20053;-83
2022/08/06 08:35:55;;;;;;;10.23;9.32;;;16.90;99.90;;;;;;5035153;28;20036;-83
2022/08/06 08:38:22;;;;;;;9.30;8.50;;;16.90;99.90;;;;;;5036000;28;20029;-82
2022/08/06 08:40:49;;;;;;;10.80;9.70;;;17.00;99.90;;;;;;5023196;28;20029;-82
2022/08/06 08:43:25;;;;;;;10.48;9.43;;;17.00;99.90;;;;;;5036508;28;20026;-84
2022/08/06 08:45:51;;;;;;;9.23;8.02;;;17.10;99.90;;;;;;5050121;28;20116;-84
2022/08/06 08:48:24;;;;;;;12.95;10.13;;;17.10;99.90;;;;;;5065404;28;20025;-83
2022/08/06 08:50:52;;;;;;;11.30;9.85;;;17.10;99.90;;;;;;5047049;28;20159;-83
2022/08/06 08:53:37;;;;;;;11.57;9.70;;;17.20;99.90;;;;;;5064728;28;20051;-84
2022/08/06 08:56:03;;;;;;;10.55;9.57;;;17.30;99.90;;;;;;5066708;28;20439;-85
2022/08/06 08:58:36;;;;;;;10.88;9.55;;;17.30;99.90;;;;;;5066907;28;20052;-83
2022/08/06 09:01:04;;;;;;;11.43;9.85;;;17.20;99.90;;;;;;5050868;28;20033;-84
2022/08/06 09:03:32;;;;;;;8.98;8.18;;;17.20;99.90;;;;;;5046858;28;20022;-84
2022/08/06 09:05:58;;;;;;;10.55;9.43;;;17.20;99.90;;;;;;5047077;28;20025;-84
2022/08/06 09:08:25;;;;;;;11.27;10.05;;;17.20;99.90;;;;;;5054681;28;20063;-83
2022/08/06 09:10:51;;;;;;;12.00;10.73;;;17.30;99.90;;;;;;5056297;28;20037;-82
2022/08/06 09:13:17;;;;;;;10.95;9.75;;;17.30;99.90;;;;;;5063192;28;20013;-83
2022/08/06 09:15:42;;;;;;;10.60;9.43;;;17.30;99.90;;;;;;5063988;28;20411;-83
2022/08/06 09:18:08;;;;;;;12.82;11.52;;;17.40;99.90;;;;;;5056242;28;20034;-83
2022/08/06 09:20:35;;;;;;;13.10;11.25;;;17.40;99.90;;;;;;5055935;28;20038;-83
2022/08/06 09:23:01;;;;;;;12.48;11.07;;;17.40;99.90;;;;;;5037658;28;20025;-82
2022/08/06 09:25:38;;;;;;;11.60;10.60;;;17.40;99.90;;;;;;5055014;28;20086;-82
2022/08/06 09:28:11;;;;;;;13.88;10.77;;;17.20;99.90;;;;;;5055267;28;20025;-82
2022/08/06 09:30:39;;;;;;;11.85;10.50;;;17.20;99.90;;;;;;5037826;28;20045;-83
2022/08/06 09:33:10;;;;;;;12.10;10.68;;;17.10;99.90;;;;;;5054289;28;20066;-83
2022/08/06 09:35:36;;;;;;;10.98;9.88;;;17.10;99.90;;;;;;5037302;28;20017;-83
2022/08/06 09:38:09;;;;;;;11.20;10.00;;;17.10;99.90;;;;;;5037743;28;20052;-82
2022/08/06 09:40:35;;;;;;;11.75;10.63;;;17.20;99.90;;;;;;5054821;28;20033;-83
2022/08/06 09:43:01;;;;;;;10.60;9.20;;;17.20;99.90;;;;;;5060320;28;20147;-83
2022/08/06 09:45:27;;;;;;;12.38;11.20;;;17.10;99.90;;;;;;5033642;28;20125;-83
2022/08/06 09:48:08;;;;;;;11.30;10.20;;;17.10;99.90;;;;;;5048533;28;20375;-83
2022/08/06 09:50:43;;;;;;;10.25;9.25;;;17.10;99.90;;;;;;5051465;28;20017;-83
2022/08/06 09:53:09;;;;;;;12.95;10.73;;;17.20;99.90;;;;;;5033413;28;20037;-85
2022/08/06 09:55:35;;;;;;;12.02;10.73;;;17.30;99.90;;;;;;5048863;28;20017;-85
2022/08/06 09:58:01;;;;;;;11.25;10.00;;;17.30;99.90;;;;;;5047955;28;20026;-85
2022/08/06 10:00:29;;;;;;;11.48;10.27;;;17.40;99.90;;;;;;5049412;28;20040;-85
2022/08/06 10:02:58;;;;;;;10.52;9.52;;;17.40;99.90;;;;;;5047023;28;20097;-85
2022/08/06 10:05:25;;;;;;;11.25;9.27;;;17.30;99.90;;;;;;5027297;28;20064;-84
2022/08/06 10:08:12;;;;;;;12.20;10.73;;;17.40;99.90;;;;;;5045699;28;20033;-85
2022/08/06 10:10:49;;;;;;;10.25;9.23;;;17.40;99.90;;;;;;5048273;28;20018;-86
2022/08/06 10:13:19;;;;;;;9.68;8.52;;;17.50;99.90;;;;;;5026511;28;20026;-86
2022/08/06 10:15:48;;;;;;;9.25;8.35;;;17.70;99.90;;;;;;5047386;28;20021;-85
2022/08/06 10:18:40;;;;;;;8.80;7.90;;;17.80;99.90;;;;;;5047851;28;20029;-86
2022/08/06 10:21:08;;;;;;;8.75;7.85;;;18.00;99.90;;;;;;5059885;28;20100;-84
2022/08/06 10:23:38;;;;;;;9.02;8.13;;;18.10;99.90;;;;;;5044400;28;20474;-84
2022/08/06 10:26:13;;;;;;;7.90;7.10;;;18.10;99.90;;;;;;5026005;28;20136;-85
2022/08/06 10:28:44;;;;;;;6.75;6.15;;;18.20;99.90;;;;;;5025208;28;20443;-85
2022/08/06 10:31:13;;;;;;;6.60;5.85;;;18.30;99.90;;;;;;5026551;28;20021;-85
2022/08/06 10:33:55;;;;;;;6.00;5.43;;;18.50;99.90;;;;;;5026604;28;20025;-85
2022/08/06 10:36:45;;;;;;;9.50;6.00;;;18.80;99.90;;;;;;5046025;28;20021;-83
2022/08/06 10:39:13;;;;;;;4.72;4.25;;;18.90;99.90;;;;;;5045261;28;20121;-85
2022/08/06 10:41:40;;;;;;;6.90;6.30;;;19.30;99.90;;;;;;5045791;28;20022;-84
2022/08/06 10:44:08;;;;;;;6.10;5.65;;;19.50;99.90;;;;;;5022257;28;20021;-85
2022/08/06 10:46:34;;;;;;;9.07;5.80;;;19.30;98.80;;;;;;5028641;28;20025;-87
2022/08/06 10:49:00;;;;;;;6.53;5.90;;;19.10;99.90;;;;;;5026784;28;20033;-85
2022/08/06 10:51:27;;;;;;;6.68;5.75;;;19.00;99.80;;;;;;5044249;28;20481;-86
2022/08/06 10:53:53;;;;;;;7.70;6.95;;;18.80;99.80;;;;;;5043768;28;20041;-86
2022/08/06 10:56:20;;;;;;;6.35;5.75;;;18.70;99.90;;;;;;5044917;28;20018;-85
2022/08/06 10:58:53;;;;;;;7.53;6.72;;;18.60;99.90;;;;;;5027858;28;20094;-85
2022/08/06 11:01:27;;;;;;;6.53;5.93;;;18.60;99.90;;;;;;5044119;28;20095;-85
2022/08/06 11:04:06;;;;;;;6.95;6.07;;;18.70;99.90;;;;;;5045326;28;20037;-86
2022/08/06 11:06:47;;;;;;;6.53;5.93;;;18.70;99.90;;;;;;5045031;28;20562;-85
2022/08/06 11:09:43;;;;;;;5.90;5.40;;;18.70;99.90;;;;;;5044337;28;20103;-84
2022/08/06 11:12:18;;;;;;;6.63;5.90;;;18.90;99.90;;;;;;5026045;28;20030;-85
2022/08/06 11:14:45;;;;;;;5.72;4.82;;;19.20;99.90;;;;;;5041735;28;20029;-86
2022/08/06 11:17:11;;;;;;;6.40;5.45;;;19.60;99.90;;;;;;5042743;28;20109;-86
2022/08/06 11:20:02;;;;;;;4.70;4.28;;;19.90;98.30;;;;;;5041264;28;20084;-86
2022/08/06 11:23:05;;;;;;;3.60;3.30;;;20.30;96.50;;;;;;4975812;28;20111;-84
2022/08/06 11:26:30;;;;;;;5.63;4.78;;;20.60;95.80;;;;;;4977762;28;20486;-85
2022/08/06 11:29:20;;;;;;;8.05;6.30;;;20.70;94.80;;;;;;4922656;29;20040;-85
2022/08/06 11:33:03;;;;;;;6.47;3.95;;;20.50;93.90;;;;;;4915281;29;20032;-86
2022/08/06 11:36:07;;;;;;;6.35;5.85;;;20.10;95.10;;;;;;4877033;29;20145;-84
2022/08/06 11:38:42;;;;;;;7.40;6.70;;;19.70;95.80;;;;;;4878625;29;20040;-86
2022/08/06 11:41:18;;;;;;;7.05;5.97;;;19.30;97.10;;;;;;4949894;29;20092;-85
2022/08/06 11:43:53;;;;;;;7.78;6.97;;;19.10;97.90;;;;;;5044119;28;20037;-86
2022/08/06 11:46:33;;;;;;;7.07;6.38;;;19.10;98.40;;;;;;5070154;28;20039;-88
2022/08/06 11:48:59;;;;;;;8.20;7.50;;;19.00;98.70;;;;;;5071875;28;20075;-86
2022/08/06 11:51:44;;;;;;;9.10;8.20;;;19.00;99.20;;;;;;5065743;28;20025;-85
2022/08/06 11:54:36;;;;;;;8.30;7.50;;;19.00;98.50;;;;;;5056531;28;20021;-86
2022/08/06 11:57:02;;;;;;;6.75;6.15;;;19.10;98.40;;;;;;5075650;28;20096;-86
2022/08/06 11:59:28;;;;;;;9.23;7.22;;;19.30;98.50;;;;;;5038179;28;20083;-87
2022/08/06 12:01:54;;;;;;;7.35;6.65;;;19.50;98.00;;;;;;5055845;28;20048;-86
2022/08/06 12:04:35;;;;;;;8.57;7.68;;;19.60;97.70;;;;;;5054617;28;20093;-86
2022/08/06 12:07:24;;;;;;;7.70;6.90;;;19.50;96.80;;;;;;5055968;28;20037;-87
2022/08/06 12:10:05;;;;;;;9.65;8.55;;;19.50;97.40;;;;;;5045392;28;20042;-86
2022/08/06 12:12:42;;;;;;;10.10;9.13;;;19.50;97.40;;;;;;5032842;28;20053;-85
2022/08/06 12:15:22;;;;;;;9.15;8.35;;;19.40;97.20;;;;;;5037749;28;20036;-85
2022/08/06 12:17:54;;;;;;;8.98;8.07;;;19.30;98.10;;;;;;5050890;28;20029;-83
2022/08/06 12:20:42;;;;;;;12.00;9.93;;;19.40;98.20;;;;;;5028639;28;20022;-84
2022/08/06 12:23:13;;;;;;;9.98;9.00;;;19.40;97.30;;;;;;5044193;28;20029;-83
2022/08/06 12:25:48;;;;;;;11.02;9.93;;;19.50;97.00;;;;;;5026679;28;20025;-83
2022/08/06 12:28:15;;;;;;;10.73;9.45;;;19.40;96.80;;;;;;5025943;28;20036;-82
2022/08/06 12:30:50;;;;;;;13.02;9.30;;;19.50;96.50;;;;;;5043480;28;20068;-84
2022/08/06 12:33:18;;;;;;;9.85;8.95;;;19.50;96.90;;;;;;5026525;28;20097;-86
2022/08/06 12:35:50;;;;;;;10.13;8.02;;;19.50;96.80;;;;;;5024346;28;20033;-85
2022/08/06 12:38:16;;;;;;;7.63;6.85;;;19.70;96.40;;;;;;5042701;28;20022;-84
2022/08/06 12:40:52;;;;;;;8.82;8.13;;;19.80;96.30;;;;;;5040367;28;20033;-86
2022/08/06 12:43:18;;;;;;;7.82;7.00;;;20.10;95.30;;;;;;5031042;28;20113;-84
2022/08/06 12:45:44;;;;;;;7.85;7.15;;;20.30;95.00;;;;;;5045583;28;20025;-85
2022/08/06 12:48:12;;;;;;;9.05;8.27;;;20.60;94.30;;;;;;5038927;28;20021;-84
2022/08/06 12:50:42;;;;;;;8.88;8.07;;;20.70;93.00;;;;;;5044112;28;20073;-85
2022/08/06 12:53:11;;;;;;;8.60;7.80;;;20.50;93.40;;;;;;5043884;28;20371;-85
2022/08/06 12:55:48;;;;;;;8.82;7.80;;;20.40;93.60;;;;;;5045406;28;20026;-85
2022/08/06 12:58:17;;;;;;;7.93;6.50;;;20.30;93.70;;;;;;5024303;28;20025;-86
2022/08/06 13:00:48;;;;;;;8.60;7.78;;;20.30;94.00;;;;;;5040027;28;20108;-85
2022/08/06 13:03:14;;;;;;;8.60;7.38;;;20.30;93.20;;;;;;5039189;28;20066;-85
2022/08/06 13:05:42;;;;;;;6.50;5.90;;;20.40;93.00;;;;;;5055064;28;20068;-85
2022/08/06 13:08:09;;;;;;;9.77;7.13;;;20.40;93.20;;;;;;5022472;28;20455;-85
2022/08/06 13:10:34;;;;;;;6.45;5.85;;;20.60;92.90;;;;;;5039601;28;20087;-85
2022/08/06 13:13:02;;;;;;;5.53;5.13;;;20.70;92.60;;;;;;5039763;28;20057;-84
2022/08/06 13:15:30;;;;;;;4.63;4.22;;;20.80;92.10;;;;;;5048559;28;20049;-85
2022/08/06 13:18:14;;;;;;;6.05;5.45;;;21.00;92.10;;;;;;5042998;28;20018;-85
2022/08/06 13:20:46;;;;;;;5.75;5.03;;;21.30;91.50;;;;;;5042284;28;20024;-85
2022/08/06 13:23:13;;;;;;;8.40;5.88;;;21.40;91.00;;;;;;5042780;28;20025;-86
2022/08/06 13:25:47;;;;;;;7.20;6.40;;;21.30;89.80;;;;;;5043277;28;20492;-84
2022/08/06 13:28:15;;;;;;;5.28;4.78;;;21.30;89.90;;;;;;5042050;28;20033;-86
2022/08/06 13:30:43;;;;;;;3.45;3.17;;;21.40;90.30;;;;;;5042863;28;20473;-86
2022/08/06 13:33:13;;;;;;;6.80;4.88;;;21.60;90.30;;;;;;5030321;28;20052;-86
2022/08/06 13:35:39;;;;;;;6.05;5.20;;;21.80;87.20;;;;;;5040196;28;20025;-87
2022/08/06 13:38:05;;;;;;;6.75;5.70;;;21.80;87.30;;;;;;5038436;28;20017;-86
2022/08/06 13:40:38;;;;;;;5.70;4.78;;;21.80;85.90;;;;;;5057483;28;20025;-86
2022/08/06 13:43:04;;;;;;;4.68;4.28;;;21.90;86.60;;;;;;5039526;28;20390;-84
2022/08/06 13:45:29;;;;;;;7.10;6.43;;;21.90;85.60;;;;;;5039499;28;20021;-87
2022/08/06 13:48:09;;;;;;;3.75;3.55;;;21.90;85.90;;;;;;5039014;28;20032;-87
2022/08/06 13:50:43;;;;;;;5.30;4.80;;;21.80;86.20;;;;;;5039179;28;20397;-85
2022/08/06 13:53:10;;;;;;;5.25;4.75;;;21.80;84.60;;;;;;5040426;28;20108;-86
2022/08/06 13:55:41;;;;;;;5.05;4.65;;;21.60;85.60;;;;;;5040238;28;20083;-86
2022/08/06 13:58:08;;;;;;;6.68;5.10;;;21.40;86.60;;;;;;5042005;28;20017;-86
2022/08/06 14:00:35;;;;;;;5.47;4.90;;;21.30;87.50;;;;;;5029078;28;20061;-86
2022/08/06 14:03:03;;;;;;;8.10;4.80;;;21.20;87.60;;;;;;5022213;28;20021;-86
2022/08/06 14:05:30;;;;;;;5.88;5.38;;;21.20;88.00;;;;;;5025198;28;20025;-85
2022/08/06 14:07:56;;;;;;;4.82;4.43;;;21.30;87.50;;;;;;5049301;28;20018;-85
2022/08/06 14:10:23;;;;;;;5.13;3.97;;;21.40;86.10;;;;;;5002224;28;20022;-86
2022/08/06 14:15:35;;;;;;;5.03;4.53;;;22.10;85.20;;;;;;5051295;28;20055;-86
2022/08/06 14:18:01;;;;;;;5.15;4.43;;;22.30;82.50;;;;;;5059573;28;20048;-86
2022/08/06 14:20:27;;;;;;;6.15;5.55;;;22.30;81.20;;;;;;5039815;28;20079;-86